This is the latest recevied weather packets stored in our database for station/object KC0RPY. If no packets are shown the sender has not sent any weather packets the latest 10 day(s).
| Time | Temp. | Humidity | Pressure | Rain* | Wind** | Luminosity | Snow |
|---|---|---|---|---|---|---|---|
| 1788652049 | 36.67° C | 42% | 1012.8 hPa | 0 mm | - | 77 W/m² | - |
| 1788651744 | 36.67° C | 42% | 1013.2 hPa | 0 mm | - | 92 W/m² | - |
| 1788651439 | 36.67° C | 41% | 1012.8 hPa | 0 mm | - | 117 W/m² | - |
| 1788651138 | 36.67° C | 42% | 1013.2 hPa | 0 mm | - | 93 W/m² | - |
| 1788650833 | 36.67° C | 42% | 1012.8 hPa | 0 mm | - | 58 W/m² | - |
| 1788650529 | 37.22° C | 41% | 1012.8 hPa | 0 mm | - | 64 W/m² | - |
| 1788650225 | 37.22° C | 41% | 1012.8 hPa | 0 mm | - | 69 W/m² | - |
| 1788649920 | 37.78° C | 40% | 1012.8 hPa | 0 mm | - | 200 W/m² | - |
| 1788649616 | 37.78° C | 40% | 1012.8 hPa | 0 mm | - | 226 W/m² | - |
| 1788649314 | 37.78° C | 40% | 1012.8 hPa | 0 mm | - | 235 W/m² | - |
| 1788649013 | 37.78° C | 41% | 1012.8 hPa | 0 mm | - | 250 W/m² | - |
| 1788648708 | 37.78° C | 41% | 1012.5 hPa | 0 mm | - | 147 W/m² | - |
| 1788648408 | 36.67° C | 41% | 1012.8 hPa | 0 mm | - | 287 W/m² | - |
| 1788648102 | 37.22° C | 42% | 1012.5 hPa | 0 mm | - | 163 W/m² | - |
| 1788647799 | 37.22° C | 41% | 1012.8 hPa | 0 mm | - | 321 W/m² | - |
| 1788647496 | 37.22° C | 41% | 1013.2 hPa | 0 mm | - | 335 W/m² | - |
| 1788647191 | 36.67° C | 42% | 1012.8 hPa | 0 mm | - | 351 W/m² | - |
| 1788646886 | 37.22° C | 42% | 1012.8 hPa | 0 mm | - | 269 W/m² | - |
| 1788646581 | 38.33° C | 40% | 1013.2 hPa | 0 mm | - | 91 W/m² | - |
| 1788646278 | 37.78° C | 40% | 1013.2 hPa | 0 mm | - | 399 W/m² | - |
| 1788645973 | 37.22° C | 42% | 1013.2 hPa | 0 mm | - | 442 W/m² | - |
| 1788645669 | 37.22° C | 43% | 1013.2 hPa | 0 mm | - | 434 W/m² | - |
| 1788645369 | 37.78° C | 41% | 1013.2 hPa | 0 mm | - | 478 W/m² | - |
| 1788645065 | 37.78° C | 41% | 1012.8 hPa | 0 mm | - | 492 W/m² | - |
| 1788644761 | 37.78° C | 40% | 1013.2 hPa | 0 mm | - | 499 W/m² | - |
* Rain latest hour (hover to see other rain measurements)
** Current wind speed in m/s (hover to see current wind gust speed)